Time;durP1;ratioP1;P1;durP2;ratioP2;P2;SDS_P1;SDS_P2;PMS_P1;PMS_P2;Temp;Humidity;BMP_temperature;BMP_pressure;BME280_temperature;BME280_humidity;BME280_pressure;Samples;Min_cycle;Max_cycle;Signal;HPM_P1;HPM_P2
2023/06/21 00:02:04;;;;;;;11.30;10.90;;;;;;;-141.02;100.00;91728.88;5133827;27;20228;-61
2023/06/21 00:04:31;;;;;;;11.15;10.75;;;;;;;-141.02;100.00;92726.13;5133835;27;20199;-61
2023/06/21 00:06:58;;;;;;;11.20;10.80;;;;;;;-141.02;100.00;92975.47;5133841;27;20199;-62
2023/06/21 00:09:25;;;;;;;11.15;10.75;;;;;;;-141.02;100.00;93224.84;5133763;27;20217;-72
2023/06/21 00:11:52;;;;;;;10.48;10.18;;;;;;;-141.02;100.00;93474.22;5133984;27;20195;-72
2023/06/21 00:14:20;;;;;;;10.30;10.00;;;;;;;-141.02;100.00;93973.06;5133315;27;20192;-71
2023/06/21 00:16:47;;;;;;;9.90;9.60;;;;;;;-141.02;100.00;94222.50;5133216;27;20244;-62
2023/06/21 00:19:14;;;;;;;9.88;9.57;;;;;;;-141.02;100.00;94471.97;5133601;27;20268;-62
2023/06/21 00:21:41;;;;;;;9.52;9.23;;;;;;;-141.02;100.00;94970.94;5133237;27;20733;-72
2023/06/21 00:24:08;;;;;;;9.32;9.02;;;;;;;-141.02;100.00;95470.00;5133480;27;20283;-61
2023/06/21 00:26:35;;;;;;;9.70;9.40;;;;;;;-141.02;100.00;95969.13;5133176;27;20196;-62
2023/06/21 00:29:03;;;;;;;9.38;9.07;;;;;;;-141.02;100.00;96468.31;5133177;27;20693;-61
2023/06/21 00:31:31;;;;;;;8.80;8.50;;;;;;;-141.02;100.00;96967.56;5133423;27;20197;-61
2023/06/21 00:33:58;;;;;;;8.10;7.90;;;;;;;-141.02;100.00;97466.91;5133387;27;20195;-62
2023/06/21 00:36:25;;;;;;;8.38;8.18;;;;;;;-141.02;100.00;97716.59;5133418;27;20220;-72
2023/06/21 00:38:52;;;;;;;8.20;8.00;;;;;;;-141.02;100.00;97966.31;5132971;27;20196;-72
2023/06/21 00:41:19;;;;;;;7.80;7.60;;;;;;;-141.02;100.00;98216.03;5133329;27;20219;-62
2023/06/21 00:43:46;;;;;;;7.40;7.20;;;;;;;-141.02;100.00;98465.78;5133277;27;20227;-71
2023/06/21 00:46:13;;;;;;;7.40;7.20;;;;;;;-141.02;100.00;98965.34;5133301;27;20196;-72
2023/06/21 00:48:41;;;;;;;7.20;7.00;;;;;;;-141.02;100.00;99464.97;5132956;28;20677;-71
2023/06/21 00:51:13;;;;;;;7.40;7.20;;;;;;;-141.02;100.00;99714.81;5132875;28;20577;-61
2023/06/21 00:53:40;;;;;;;7.00;6.80;;;;;;;-141.02;100.00;100214.53;5132919;28;20191;-62
2023/06/21 00:56:08;;;;;;;7.50;7.30;;;;;;;-141.02;100.00;100464.44;5133148;28;20196;-63
2023/06/21 00:58:35;;;;;;;7.65;7.45;;;;;;;-141.02;100.00;100464.44;5133058;28;20307;-62
2023/06/21 01:01:02;;;;;;;7.90;7.70;;;;;;;-141.02;100.00;100464.44;5133391;28;20224;-69
2023/06/21 01:03:29;;;;;;;8.60;8.40;;;;;;;-141.02;100.00;100214.53;5133245;28;20275;-62
2023/06/21 01:06:08;;;;;;;8.73;8.52;;;;;;;-141.02;100.00;99964.66;5132790;28;20695;-61
2023/06/21 01:08:42;;;;;;;8.63;8.43;;;;;;;-141.02;100.00;99464.97;5133195;27;20200;-72
2023/06/21 01:11:27;;;;;;;9.10;8.80;;;;;;;-141.02;100.00;99215.16;5132782;28;20548;-62
2023/06/21 01:14:12;;;;;;;9.60;9.30;;;;;;;-141.02;100.00;98965.34;5132805;28;20227;-61
2023/06/21 01:16:41;;;;;;;9.90;9.60;;;;;;;-141.02;100.00;98715.56;5132376;28;20271;-67
2023/06/21 01:19:16;;;;;;;9.80;9.50;;;;;;;-141.02;100.00;98715.56;5133010;27;20218;-65
2023/06/21 01:21:45;;;;;;;9.20;8.90;;;;;;;-141.02;100.00;98965.34;5132924;28;20185;-71
2023/06/21 01:24:25;;;;;;;9.40;9.10;;;;;;;-141.02;100.00;98965.34;5132879;28;20192;-61
2023/06/21 01:27:27;;;;;;;8.40;8.20;;;;;;;-141.02;100.00;99215.16;5132912;28;20192;-71
2023/06/21 01:29:59;;;;;;;7.88;7.68;;;;;;;-141.02;100.00;99464.97;5129532;27;20237;-72
2023/06/21 01:32:29;;;;;;;7.50;7.30;;;;;;;-141.02;100.00;99964.66;5136926;27;20216;-62
2023/06/21 01:34:56;;;;;;;7.38;7.18;;;;;;;-141.02;100.00;100464.44;5136453;27;20279;-72
2023/06/21 01:37:23;;;;;;;6.90;6.70;;;;;;;-141.02;100.00;100464.44;5136900;27;20228;-64
2023/06/21 01:39:52;;;;;;;7.40;7.20;;;;;;;-141.02;100.00;100464.44;5136636;27;20219;-70
2023/06/21 01:42:19;;;;;;;7.45;7.25;;;;;;;-141.02;100.00;100464.44;5136448;27;20235;-68
2023/06/21 01:44:47;;;;;;;7.40;7.20;;;;;;;-141.02;100.00;100464.44;5136242;27;20589;-61
2023/06/21 01:47:15;;;;;;;7.50;7.30;;;;;;;-141.02;100.00;100714.34;5136238;27;20566;-72
2023/06/21 01:49:43;;;;;;;7.00;6.80;;;;;;;-141.02;100.00;100714.34;5136555;27;20231;-61
2023/06/21 01:52:11;;;;;;;6.50;6.30;;;;;;;-141.02;100.00;100964.25;5136357;27;20677;-62
2023/06/21 01:54:42;;;;;;;6.47;6.28;;;;;;;-141.02;100.00;101214.22;5136392;27;20203;-71
2023/06/21 01:57:11;;;;;;;6.32;6.20;;;;;;;-141.02;100.00;101714.16;5136483;27;20223;-61
2023/06/21 01:59:38;;;;;;;6.80;6.60;;;;;;;-141.02;100.00;101464.19;5136321;27;20196;-61
2023/06/21 02:02:08;;;;;;;6.70;6.50;;;;;;;-141.02;100.00;101464.19;5136004;27;20197;-61
2023/06/21 02:04:39;;;;;;;6.90;6.70;;;;;;;-141.02;100.00;101464.19;5136354;27;20295;-61
2023/06/21 02:07:07;;;;;;;6.18;6.07;;;;;;;-141.02;100.00;101714.16;5135904;27;20195;-61
2023/06/21 02:09:35;;;;;;;6.00;5.90;;;;;;;-141.02;100.00;101964.16;5136061;27;20236;-71
2023/06/21 02:12:02;;;;;;;5.75;5.65;;;;;;;-141.02;100.00;102464.22;5136080;27;20245;-72
2023/06/21 02:14:29;;;;;;;5.80;5.70;;;;;;;-141.02;100.00;102714.25;5136055;27;20279;-69
2023/06/21 02:16:56;;;;;;;5.30;5.20;;;;;;;-141.02;100.00;102964.34;5135461;27;20319;-69
2023/06/21 02:19:24;;;;;;;5.20;5.10;;;;;;;-141.02;100.00;103464.53;5135607;27;20701;-61
2023/06/21 02:21:53;;;;;;;4.80;4.70;;;;;;;-141.02;100.00;103714.66;5135584;27;20287;-71
2023/06/21 02:24:20;;;;;;;4.88;4.78;;;;;;;-141.02;100.00;103964.81;5135843;27;20214;-61
2023/06/21 02:26:47;;;;;;;4.80;4.70;;;;;;;-141.02;100.00;104214.97;5135501;27;20279;-61
2023/06/21 02:29:14;;;;;;;5.13;5.03;;;;;;;-141.02;100.00;104214.97;5135479;27;20200;-65
2023/06/21 02:31:41;;;;;;;4.88;4.78;;;;;;;-141.02;100.00;104214.97;5135334;27;20232;-71
2023/06/21 02:34:08;;;;;;;4.70;4.60;;;;;;;-141.02;100.00;104465.16;5135630;27;20543;-61
2023/06/21 02:36:38;;;;;;;4.60;4.50;;;;;;;-141.02;100.00;104715.34;5135542;27;20230;-72
2023/06/21 02:39:08;;;;;;;4.72;4.63;;;;;;;-141.02;100.00;104965.56;5135255;27;20222;-61
2023/06/21 02:41:35;;;;;;;4.80;4.70;;;;;;;-141.02;100.00;105215.78;5134097;27;20697;-66
2023/06/21 02:44:02;;;;;;;4.80;4.70;;;;;;;-141.02;100.00;105466.03;5135220;27;20232;-71
2023/06/21 02:46:29;;;;;;;4.70;4.60;;;;;;;-141.02;100.00;105716.31;5135224;27;20354;-68
2023/06/21 02:48:55;;;;;;;4.60;4.50;;;;;;;-141.02;100.00;105966.59;5135374;27;20224;-61
2023/06/21 02:51:25;;;;;;;4.40;4.30;;;;;;;-141.02;100.00;106216.91;5135728;27;20188;-61
2023/06/21 02:53:52;;;;;;;4.40;4.30;;;;;;;-141.02;100.00;106467.22;5135274;27;20197;-61
2023/06/21 02:56:20;;;;;;;4.40;4.30;;;;;;;-141.02;100.00;106467.22;5134964;27;20239;-68
2023/06/21 02:58:47;;;;;;;4.50;4.40;;;;;;;-141.02;100.00;106717.56;5134818;27;20693;-72
2023/06/21 03:01:16;;;;;;;4.80;4.70;;;;;;;-141.02;100.00;106717.56;5135209;27;20627;-71
2023/06/21 03:03:44;;;;;;;5.50;5.40;;;;;;;-141.02;100.00;106717.56;5135146;27;20257;-60
2023/06/21 03:06:11;;;;;;;4.50;4.40;;;;;;;-141.02;100.00;106967.91;5135065;27;20616;-61
2023/06/21 03:08:39;;;;;;;5.03;4.93;;;;;;;-141.02;100.00;106967.91;5135009;27;20288;-62
2023/06/21 03:11:08;;;;;;;5.20;5.10;;;;;;;-141.02;100.00;106967.91;5134990;27;20296;-71
2023/06/21 03:13:37;;;;;;;5.40;5.30;;;;;;;-141.02;100.00;106967.91;5134904;27;20201;-72
2023/06/21 03:16:04;;;;;;;5.40;5.30;;;;;;;-141.02;100.00;106967.91;5134630;27;20232;-72
2023/06/21 03:18:31;;;;;;;5.47;5.38;;;;;;;-141.02;100.00;106967.91;5134740;27;20255;-60
2023/06/21 03:21:01;;;;;;;5.70;5.60;;;;;;;-141.02;100.00;106967.91;5134515;27;20192;-72
2023/06/21 03:23:28;;;;;;;6.25;6.15;;;;;;;-141.02;100.00;106717.56;5134721;27;20273;-72
2023/06/21 03:25:55;;;;;;;6.10;6.00;;;;;;;-141.02;100.00;106717.56;5134713;27;20202;-61
2023/06/21 03:28:22;;;;;;;6.25;6.15;;;;;;;-141.02;100.00;106717.56;5134609;27;20277;-61
2023/06/21 03:30:50;;;;;;;6.03;5.93;;;;;;;-141.02;100.00;106967.91;5134276;27;20199;-61
2023/06/21 03:33:17;;;;;;;7.40;7.20;;;;;;;-141.02;100.00;107218.31;5134573;27;20200;-71
2023/06/21 03:35:45;;;;;;;7.50;7.30;;;;;;;-141.02;100.00;107218.31;5134105;27;20735;-72
2023/06/21 03:38:12;;;;;;;9.15;8.85;;;;;;;-141.02;100.00;106717.56;5134019;27;20705;-61
2023/06/21 03:40:39;;;;;;;10.50;10.20;;;;;;;-141.02;100.00;105966.59;5134057;27;20197;-72
2023/06/21 03:43:06;;;;;;;11.75;11.35;;;;;;;-141.02;100.00;104965.56;5134321;27;20279;-71
2023/06/21 03:45:32;;;;;;;12.52;12.13;;;;;;;-141.02;100.00;104465.16;5134352;27;20231;-61
2023/06/21 03:48:04;;;;;;;13.68;13.07;;;;;;;-141.02;100.00;103964.81;5134263;27;20196;-72
2023/06/21 03:50:31;;;;;;;15.90;15.13;;;;;;;-141.02;100.00;102214.16;5133944;27;20238;-61
2023/06/21 03:52:58;;;;;;;15.20;14.40;;;;;;;-141.02;100.00;101214.22;5133711;27;20196;-62
2023/06/21 03:55:26;;;;;;;16.17;15.27;;;;;;;-141.02;100.00;100714.34;5134089;27;20199;-72
2023/06/21 03:57:53;;;;;;;17.45;16.35;;;;;;;-141.02;100.00;99464.97;5134183;27;20386;-61
2023/06/21 04:00:20;;;;;;;16.75;15.75;;;;;;;-141.02;100.00;99215.16;5133981;27;20223;-61
2023/06/21 04:02:47;;;;;;;16.73;15.82;;;;;;;-141.02;100.00;99714.81;5133954;27;20228;-72
2023/06/21 04:05:16;;;;;;;17.23;16.33;;;;;;;-141.02;100.00;99964.66;5133568;27;20665;-62
2023/06/21 04:07:43;;;;;;;17.40;16.50;;;;;;;-141.02;100.00;100714.34;5133889;27;20196;-61
2023/06/21 04:10:12;;;;;;;17.48;16.48;;;;;;;-141.02;100.00;100464.44;5133757;27;20195;-61
2023/06/21 04:12:40;;;;;;;17.02;16.02;;;;;;;-141.02;100.00;100214.53;5133826;27;20256;-60
2023/06/21 04:15:07;;;;;;;17.40;16.25;;;;;;;-141.02;100.00;99964.66;5133818;27;20192;-61
2023/06/21 04:17:35;;;;;;;18.55;17.15;;;;;;;-141.02;100.00;99215.16;5133405;27;20228;-61
2023/06/21 04:20:07;;;;;;;19.95;18.35;;;;;;;-141.02;100.00;97966.31;5133695;27;20203;-61
2023/06/21 04:22:36;;;;;;;19.77;18.10;;;;;;;-141.02;100.00;96218.69;5133663;27;20184;-61
2023/06/21 04:25:03;;;;;;;20.80;19.00;;;;;;;-141.02;100.00;94721.44;5133596;27;20200;-62
2023/06/21 04:27:30;;;;;;;23.05;21.15;;;;;;;-141.02;93.62;93474.22;5133442;27;20192;-62
2023/06/21 04:29:57;;;;;;;23.17;21.17;;;;;;;-141.02;87.13;92476.78;5133286;27;20204;-62
2023/06/21 04:32:24;;;;;;;23.33;21.23;;;;;;;-141.02;83.32;91978.16;5133824;27;20279;-61
2023/06/21 04:34:51;;;;;;;22.73;20.52;;;;;;;-141.02;82.80;91728.88;5133209;27;20196;-62
2023/06/21 04:37:23;;;;;;;24.58;22.17;;;;;;;-141.02;81.46;91728.88;5133525;27;20253;-61
2023/06/21 04:39:51;;;;;;;24.08;21.75;;;;;;;-141.02;76.49;90731.94;5133320;27;20288;-61
2023/06/21 04:42:20;;;;;;;24.10;21.70;;;;;;;-141.02;79.12;89735.28;5133452;27;20254;-62
2023/06/21 04:44:48;;;;;;;24.65;22.25;;;;;;;-141.02;83.06;89237.03;5133073;27;20283;-62
2023/06/21 04:47:16;;;;;;;24.58;22.17;;;;;;;-141.02;86.05;89486.16;5133423;27;20203;-72
2023/06/21 04:49:42;;;;;;;26.00;23.45;;;;;;;-141.02;85.53;89486.16;5133399;27;20239;-62
2023/06/21 04:52:10;;;;;;;25.25;22.77;;;;;;;-141.02;85.97;89984.41;5132912;28;20228;-61
2023/06/21 04:54:37;;;;;;;24.45;22.05;;;;;;;-141.02;80.25;90233.56;5132942;28;20235;-61
2023/06/21 04:57:06;;;;;;;24.23;21.83;;;;;;;-141.02;79.12;89735.28;5133225;28;20231;-61
2023/06/21 04:59:34;;;;;;;24.17;21.80;;;;;;;-141.02;79.82;89486.16;5132861;28;20310;-61
2023/06/21 05:02:01;;;;;;;24.42;22.10;;;;;;;-141.02;81.94;89237.03;5132862;28;20232;-68
2023/06/21 05:04:28;;;;;;;23.92;21.52;;;;;;;-141.02;85.15;89237.03;5133163;27;20188;-73
2023/06/21 05:06:55;;;;;;;23.63;21.33;;;;;;;-141.02;89.36;88738.88;5137485;27;20192;-61
2023/06/21 05:09:22;;;;;;;22.75;20.60;;;;;;;-141.02;91.68;88987.97;5137369;27;20331;-64
2023/06/21 05:11:49;;;;;;;22.65;20.52;;;;;;;-141.02;94.27;88738.88;5137065;27;20627;-61
2023/06/21 05:14:17;;;;;;;22.48;20.52;;;;;;;-141.02;94.03;89486.16;5136946;27;20268;-73
2023/06/21 05:16:44;;;;;;;25.40;23.30;;;;;;;-141.02;90.23;89735.28;5136823;27;20266;-61
2023/06/21 05:19:11;;;;;;;24.40;22.38;;;;;;;-141.02;88.72;89237.03;5136829;27;20976;-61
2023/06/21 05:21:38;;;;;;;25.27;23.17;;;;;;;-141.02;87.00;88738.88;5136818;27;20200;-66
2023/06/21 05:24:06;;;;;;;24.55;22.45;;;;;;;-141.02;86.21;88240.81;5136803;27;20199;-62
2023/06/21 05:26:33;;;;;;;23.15;21.25;;;;;;;-141.02;87.32;88240.81;5136922;27;20231;-61
2023/06/21 05:29:00;;;;;;;23.55;21.65;;;;;;;-141.02;87.83;87244.88;5136972;27;20249;-68
2023/06/21 05:31:29;;;;;;;23.15;21.25;;;;;;;-141.02;89.53;88240.81;5137000;27;20276;-65
2023/06/21 05:33:56;;;;;;;22.77;20.98;;;;;;;-141.02;90.87;88240.81;5136904;27;20224;-61
2023/06/21 05:36:23;;;;;;;23.85;21.85;;;;;;;-141.02;89.36;88240.81;5136916;27;20192;-62
2023/06/21 05:38:50;;;;;;;22.02;20.23;;;;;;;-141.02;91.77;88240.81;5136353;27;20227;-61
2023/06/21 05:41:17;;;;;;;24.23;22.23;;;;;;;-141.02;90.70;88489.84;5136754;27;20654;-73
2023/06/21 05:43:44;;;;;;;21.48;19.67;;;;;;;-141.02;92.00;88240.81;5136660;27;20220;-74
2023/06/21 05:46:11;;;;;;;21.75;20.05;;;;;;;-141.02;97.90;87991.81;5136674;27;20199;-60
2023/06/21 05:48:39;;;;;;;19.83;18.33;;;;;;;-141.02;100.00;87991.81;5136315;27;20196;-65
2023/06/21 05:51:06;;;;;;;19.60;18.10;;;;;;;-141.02;100.00;88987.97;5137366;27;20227;-61
2023/06/21 05:53:33;;;;;;;20.38;18.88;;;;;;;-141.02;100.00;89237.03;5136505;27;20272;-61
2023/06/21 05:56:00;;;;;;;20.25;18.75;;;;;;;-141.02;100.00;89735.28;5136381;27;20239;-68
2023/06/21 05:58:27;;;;;;;21.50;19.80;;;;;;;-141.02;100.00;89984.41;5136062;27;20258;-72
2023/06/21 06:00:55;;;;;;;21.52;19.85;;;;;;;-141.02;100.00;90233.56;5136021;27;20284;-60
2023/06/21 06:03:22;;;;;;;21.17;19.58;;;;;;;-141.02;100.00;89735.28;5135964;27;20658;-61
2023/06/21 06:05:51;;;;;;;20.50;18.90;;;;;;;-141.02;100.00;89735.28;5136377;27;20197;-73
2023/06/21 06:08:18;;;;;;;22.15;20.35;;;;;;;-141.02;100.00;89984.41;5136097;27;20188;-61
2023/06/21 06:10:45;;;;;;;20.65;19.10;;;;;;;-141.02;100.00;88738.88;5136211;27;20245;-61
2023/06/21 06:13:12;;;;;;;20.65;19.05;;;;;;;-141.02;100.00;89237.03;5136071;27;20327;-74
2023/06/21 06:15:39;;;;;;;19.25;17.85;;;;;;;-141.02;100.00;89984.41;5135633;27;20192;-74
2023/06/21 06:18:06;;;;;;;19.85;18.45;;;;;;;-141.02;100.00;90482.72;5135758;27;20283;-61
2023/06/21 06:20:33;;;;;;;20.15;18.65;;;;;;;-141.02;100.00;90731.94;5135657;27;20810;-63
2023/06/21 06:23:02;;;;;;;20.55;18.85;;;;;;;-141.02;100.00;90482.72;5135992;27;20231;-60
2023/06/21 06:25:29;;;;;;;19.25;17.85;;;;;;;-141.02;100.00;90482.72;5135557;27;20199;-61
2023/06/21 06:27:56;;;;;;;22.50;20.70;;;;;;;-141.02;99.59;90233.56;5135634;27;20192;-61
2023/06/21 06:30:23;;;;;;;19.77;18.17;;;;;;;-141.02;100.00;90233.56;5135582;27;20673;-69
2023/06/21 06:32:50;;;;;;;20.92;19.23;;;;;;;-141.02;100.00;90981.13;5135430;27;20257;-61
2023/06/21 06:35:17;;;;;;;20.65;18.95;;;;;;;-141.02;100.00;90731.94;5135654;27;20189;-72
2023/06/21 06:37:44;;;;;;;20.10;18.50;;;;;;;-141.02;100.00;90482.72;5135467;27;20280;-60
2023/06/21 06:40:13;;;;;;;20.58;18.92;;;;;;;-141.02;100.00;89984.41;5135267;27;20321;-60
2023/06/21 06:42:40;;;;;;;20.67;19.08;;;;;;;-141.02;100.00;89984.41;5135554;27;20583;-61
2023/06/21 06:45:08;;;;;;;19.70;18.10;;;;;;;-141.02;100.00;90981.13;5135825;27;20207;-60
2023/06/21 06:47:35;;;;;;;19.73;18.13;;;;;;;-141.02;100.00;90482.72;5135420;27;20188;-60
2023/06/21 06:50:04;;;;;;;20.35;18.65;;;;;;;-141.02;99.25;90981.13;5135406;27;20250;-73
2023/06/21 06:52:31;;;;;;;22.15;20.25;;;;;;;-141.02;95.79;90981.13;5135385;27;20189;-73
2023/06/21 06:54:57;;;;;;;21.33;19.52;;;;;;;-141.02;95.26;91479.63;5134973;27;20652;-61
2023/06/21 06:57:26;;;;;;;22.83;20.73;;;;;;;-141.02;92.18;90731.94;5135364;27;20570;-62
2023/06/21 06:59:53;;;;;;;23.67;21.52;;;;;;;-141.02;90.63;90731.94;5135390;27;20376;-65
2023/06/21 07:02:20;;;;;;;23.58;21.38;;;;;;;-141.02;91.00;90731.94;5134890;27;20358;-72
2023/06/21 07:04:47;;;;;;;21.40;19.50;;;;;;;-141.02;93.69;90981.13;5135075;27;20344;-60
2023/06/21 07:07:14;;;;;;;22.60;20.60;;;;;;;-141.02;92.08;90981.13;5135085;27;20726;-60
2023/06/21 07:09:41;;;;;;;23.42;21.25;;;;;;;-141.02;92.11;90482.72;5135075;27;20275;-73
2023/06/21 07:12:09;;;;;;;25.70;23.27;;;;;;;-141.02;85.17;89735.28;5134862;27;20193;-62
2023/06/21 07:14:37;;;;;;;25.05;22.65;;;;;;;-141.02;90.06;91230.38;5134863;27;20393;-60
2023/06/21 07:17:04;;;;;;;25.10;22.70;;;;;;;-141.02;85.23;90233.56;5134647;27;20307;-61
2023/06/21 07:19:31;;;;;;;24.38;21.98;;;;;;;-141.02;84.51;90731.94;5134779;27;20292;-60
2023/06/21 07:21:58;;;;;;;27.10;24.48;;;;;;;-141.02;82.36;90482.72;5134792;27;20296;-72
2023/06/21 07:24:25;;;;;;;26.75;24.15;;;;;;;-141.02;81.60;90233.56;5135565;27;20551;-61
2023/06/21 07:26:52;;;;;;;26.42;23.88;;;;;;;-141.02;85.42;91230.38;5134442;27;20283;-61
2023/06/21 07:29:19;;;;;;;27.20;24.60;;;;;;;-141.02;80.80;90731.94;5133663;27;20198;-74
2023/06/21 07:31:48;;;;;;;29.77;26.98;;;;;;;-141.02;78.67;90731.94;5134553;27;20249;-61
2023/06/21 07:34:15;;;;;;;26.67;24.08;;;;;;;-141.02;79.03;90233.56;5134164;27;20199;-60
2023/06/21 07:36:42;;;;;;;26.13;23.52;;;;;;;-141.02;82.36;91230.38;5134152;27;20224;-60
2023/06/21 07:39:09;;;;;;;26.42;23.83;;;;;;;-141.02;79.82;90482.72;5133907;27;20662;-60
2023/06/21 07:41:36;;;;;;;25.77;23.23;;;;;;;-141.02;76.45;89735.28;5134353;27;20228;-61
2023/06/21 07:44:03;;;;;;;25.98;23.38;;;;;;;-141.02;78.28;90482.72;5133990;27;20301;-73
2023/06/21 07:46:30;;;;;;;26.63;23.92;;;;;;;-141.02;75.94;90233.56;5134175;27;20200;-72
2023/06/21 07:48:58;;;;;;;25.92;23.42;;;;;;;-141.02;77.93;89735.28;5134262;27;20196;-60
2023/06/21 07:51:25;;;;;;;26.70;24.13;;;;;;;-141.02;77.44;90482.72;5133876;27;20291;-72
2023/06/21 07:53:52;;;;;;;27.45;24.67;;;;;;;-141.02;74.87;89984.41;5134005;27;20232;-74
2023/06/21 07:56:19;;;;;;;27.65;24.85;;;;;;;-141.02;74.64;90482.72;5134267;27;20220;-60
2023/06/21 07:58:47;;;;;;;27.35;24.65;;;;;;;-141.02;78.19;90482.72;5133916;27;20188;-72
2023/06/21 08:01:14;;;;;;;28.65;25.88;;;;;;;-141.02;74.26;89735.28;5133639;27;20215;-60
2023/06/21 08:03:41;;;;;;;29.13;26.33;;;;;;;-141.02;74.66;90731.94;5133968;27;20262;-61
2023/06/21 08:06:11;;;;;;;28.10;25.20;;;;;;;-141.02;74.78;91230.38;5133857;27;20220;-60
2023/06/21 08:08:38;;;;;;;28.33;25.42;;;;;;;-141.02;71.03;88987.97;5133553;27;20197;-60
2023/06/21 08:11:06;;;;;;;26.88;24.10;;;;;;;-141.02;72.44;89237.03;5133504;27;20288;-60
2023/06/21 08:13:32;;;;;;;28.63;25.73;;;;;;;-141.02;75.00;89984.41;5133480;27;20283;-60
2023/06/21 08:15:59;;;;;;;26.35;23.70;;;;;;;-141.02;73.12;88987.97;5133647;27;20331;-60
2023/06/21 08:18:26;;;;;;;27.15;24.45;;;;;;;-141.02;72.08;88987.97;5133687;27;20206;-60
2023/06/21 08:20:53;;;;;;;27.85;25.05;;;;;;;-141.02;71.29;89486.16;5133280;27;20589;-61
2023/06/21 08:23:22;;;;;;;28.33;25.42;;;;;;;-141.02;70.17;89735.28;5133603;27;20279;-60
2023/06/21 08:25:49;;;;;;;28.25;25.35;;;;;;;-141.02;69.78;88489.84;5133274;27;20193;-60
2023/06/21 08:28:17;;;;;;;27.67;24.88;;;;;;;-141.02;72.19;88987.97;5133750;27;20196;-60
2023/06/21 08:30:44;;;;;;;28.00;25.20;;;;;;;-141.02;72.78;88738.88;5133212;27;20196;-72
2023/06/21 08:33:12;;;;;;;26.80;24.00;;;;;;;-141.02;75.42;89735.28;5133173;27;20228;-60
2023/06/21 08:35:39;;;;;;;27.42;24.63;;;;;;;-141.02;70.88;88987.97;5133422;27;20196;-73
2023/06/21 08:38:07;;;;;;;26.50;23.80;;;;;;;-141.02;71.65;89735.28;5133106;27;20192;-61
2023/06/21 08:40:37;;;;;;;28.70;25.80;;;;;;;-141.02;68.83;89984.41;5132009;27;20228;-69
2023/06/21 08:43:04;;;;;;;28.52;25.63;;;;;;;-141.02;67.63;89237.03;5133359;27;20279;-60
2023/06/21 08:45:31;;;;;;;28.45;25.55;;;;;;;-141.02;69.60;89237.03;5133288;27;20280;-65
2023/06/21 08:48:01;;;;;;;28.05;25.25;;;;;;;-141.02;70.32;89735.28;5132930;27;20685;-60
2023/06/21 08:50:29;;;;;;;28.13;25.30;;;;;;;-141.02;71.31;89984.41;5133265;27;20673;-60
2023/06/21 08:53:00;;;;;;;28.55;25.65;;;;;;;-141.02;69.83;90233.56;5133419;27;20188;-60
2023/06/21 08:55:29;;;;;;;29.00;26.10;;;;;;;-141.02;67.00;90233.56;5133242;28;20185;-60
2023/06/21 08:58:00;;;;;;;28.95;26.05;;;;;;;-141.02;66.76;90233.56;5133089;27;20700;-61
2023/06/21 09:00:33;;;;;;;28.58;25.67;;;;;;;-141.02;66.60;88738.88;5132820;28;20252;-60
2023/06/21 09:03:08;;;;;;;27.50;24.70;;;;;;;-141.02;73.26;87991.81;5133111;28;20649;-64
2023/06/21 09:05:42;;;;;;;29.20;26.30;;;;;;;-141.02;69.04;87991.81;5132938;27;20699;-60
2023/06/21 09:08:09;;;;;;;27.75;24.95;;;;;;;-141.02;69.12;88738.88;5132782;28;20664;-60
2023/06/21 09:10:37;;;;;;;28.20;25.33;;;;;;;-141.02;68.45;88987.97;5133171;28;20279;-60
2023/06/21 09:13:07;;;;;;;28.08;25.25;;;;;;;-141.02;69.87;90233.56;5133112;28;20276;-74
2023/06/21 09:15:34;;;;;;;28.90;26.00;;;;;;;-141.02;67.68;89984.41;5132784;27;20228;-60
2023/06/21 09:18:01;;;;;;;28.65;25.70;;;;;;;-141.02;64.00;88489.84;5132903;28;20227;-60
2023/06/21 09:20:29;;;;;;;28.15;25.25;;;;;;;-141.02;64.75;87742.81;5132843;27;20320;-60
2023/06/21 09:22:57;;;;;;;29.08;26.17;;;;;;;-141.02;65.93;87493.84;5132565;28;20200;-60
2023/06/21 09:25:24;;;;;;;27.98;25.17;;;;;;;-141.02;66.87;89486.16;5132948;27;20200;-60
2023/06/21 09:27:52;;;;;;;27.27;24.38;;;;;;;-141.02;63.99;87493.84;5132913;28;20643;-60
2023/06/21 09:30:21;;;;;;;27.55;24.70;;;;;;;-141.02;64.38;88489.84;5132785;28;20257;-60
2023/06/21 09:32:48;;;;;;;28.60;25.70;;;;;;;-141.02;65.08;88987.97;5132852;28;20275;-60
2023/06/21 09:35:15;;;;;;;29.38;26.38;;;;;;;-141.02;63.49;87244.88;5133115;27;20189;-60
2023/06/21 09:37:42;;;;;;;28.50;25.60;;;;;;;-141.02;64.93;89237.03;5133081;27;20200;-60
2023/06/21 09:40:10;;;;;;;30.48;27.38;;;;;;;-141.02;60.43;85253.84;5132393;28;20319;-60
2023/06/21 09:42:38;;;;;;;29.00;26.10;;;;;;;-141.02;62.68;84507.50;5132393;28;20239;-60
2023/06/21 09:45:09;;;;;;;29.58;26.58;;;;;;;-141.02;61.88;85005.03;5132688;28;20200;-60
2023/06/21 09:47:41;;;;;;;28.95;25.95;;;;;;;-141.02;61.19;86498.09;5132974;27;20222;-60
2023/06/21 09:50:10;;;;;;;29.50;26.45;;;;;;;-141.02;59.89;85751.50;5132366;27;20207;-60
2023/06/21 09:52:37;;;;;;;29.73;26.70;;;;;;;-141.02;61.36;86995.94;5135596;27;20197;-59
2023/06/21 09:55:05;;;;;;;31.42;28.27;;;;;;;-141.02;56.09;84258.75;5136307;27;20627;-59
2023/06/21 09:57:33;;;;;;;29.23;26.23;;;;;;;-141.02;60.91;84756.25;5136411;27;20193;-59
2023/06/21 10:00:01;;;;;;;29.50;26.42;;;;;;;-141.02;58.38;85502.66;5136154;27;20565;-59
2023/06/21 10:02:28;;;;;;;30.80;27.60;;;;;;;-141.02;54.62;81523.75;5135968;27;20662;-59
2023/06/21 10:04:57;;;;;;;30.13;27.02;;;;;;;-141.02;57.06;82766.69;5135946;27;20236;-59
2023/06/21 10:07:26;;;;;;;29.92;26.83;;;;;;;-141.02;57.46;84507.50;5136217;27;20189;-60
2023/06/21 10:09:53;;;;;;;29.42;26.33;;;;;;;-141.02;56.20;84010.03;5136173;27;20196;-60
2023/06/21 10:12:20;;;;;;;30.20;27.05;;;;;;;-141.02;56.85;84010.03;5135770;27;20693;-59
2023/06/21 10:14:47;;;;;;;42.17;38.08;;;;;;;-141.02;57.54;83263.97;5136318;27;20283;-60
2023/06/21 10:17:15;;;;;;;30.23;27.05;;;;;;;-141.02;55.71;83015.31;5135794;27;20309;-60
2023/06/21 10:19:43;;;;;;;29.63;26.42;;;;;;;-141.02;55.95;82020.88;5135618;27;20263;-59
2023/06/21 10:22:17;;;;;;;30.85;27.55;;;;;;;-141.02;55.15;83015.31;5135944;27;20188;-59
2023/06/21 10:24:47;;;;;;;43.70;39.50;;;;;;;-141.02;57.52;83015.31;5135956;27;20617;-59
2023/06/21 10:27:16;;;;;;;30.08;26.92;;;;;;;-141.02;55.69;80778.25;5135783;27;20220;-59
2023/06/21 10:29:44;;;;;;;29.50;26.38;;;;;;;-141.02;56.70;81523.75;5135715;27;20193;-59
2023/06/21 10:32:12;;;;;;;29.95;26.75;;;;;;;-141.02;55.32;81523.75;5135687;27;20230;-73
2023/06/21 10:34:55;;;;;;;29.08;25.98;;;;;;;-141.02;56.57;84258.75;5135372;27;20255;-59
2023/06/21 10:37:33;;;;;;;43.92;39.95;;;;;;;-141.02;56.05;82269.47;5135684;27;20189;-59
2023/06/21 10:40:08;;;;;;;29.35;26.15;;;;;;;-141.02;56.87;84507.50;5135536;27;20211;-60
2023/06/21 10:42:37;;;;;;;30.10;26.90;;;;;;;-141.02;54.34;83015.31;5135294;27;20237;-60
2023/06/21 10:45:06;;;;;;;29.38;26.20;;;;;;;-141.02;53.14;81772.31;5135777;27;20602;-59
2023/06/21 10:47:34;;;;;;;28.75;25.65;;;;;;;-141.02;55.40;83263.97;5135370;27;20288;-60
2023/06/21 10:50:02;;;;;;;28.27;25.27;;;;;;;-141.02;56.45;84010.03;5135395;27;20279;-59
2023/06/21 10:52:31;;;;;;;29.00;25.90;;;;;;;-141.02;56.13;81772.31;5135061;27;20189;-60
2023/06/21 10:54:59;;;;;;;29.55;26.38;;;;;;;-141.02;55.37;81275.25;5135300;27;20204;-59
2023/06/21 10:57:28;;;;;;;28.88;25.77;;;;;;;-141.02;56.07;81026.72;5135151;27;20553;-75
2023/06/21 10:59:56;;;;;;;30.50;27.30;;;;;;;-141.02;55.55;80529.75;5135103;27;20217;-60
2023/06/21 11:02:24;;;;;;;29.85;26.67;;;;;;;-141.02;54.79;79039.28;5134358;27;20210;-59
2023/06/21 11:05:13;;;;;;;30.20;27.15;;;;;;;-141.02;58.00;81026.72;5134494;27;20644;-75